createdAt,value
2024-03-06T00:01:19.577Z,13.55
2024-03-06T00:03:52.223Z,12.57
2024-03-06T00:06:20.093Z,13.55
2024-03-06T00:08:48.349Z,13.35
2024-03-06T00:11:17.129Z,12.75
2024-03-06T00:13:46.334Z,12.80
2024-03-06T00:16:16.371Z,12.48
2024-03-06T00:18:46.282Z,12.77
2024-03-06T00:21:14.533Z,13.65
2024-03-06T00:23:42.727Z,12.68
2024-03-06T00:26:11.759Z,12.82
2024-03-06T00:28:40.904Z,13.63
2024-03-06T00:31:09.142Z,14.30
2024-03-06T00:33:37.370Z,13.82
2024-03-06T00:36:05.955Z,12.23
2024-03-06T00:38:34.238Z,13.73
2024-03-06T00:41:03.223Z,13.73
2024-03-06T00:43:31.475Z,12.35
2024-03-06T00:46:01.246Z,13.32
2024-03-06T00:48:32.652Z,11.77
2024-03-06T00:51:00.739Z,12.65
2024-03-06T00:53:28.780Z,11.98
2024-03-06T00:55:56.718Z,11.52
2024-03-06T00:58:24.947Z,12.00
2024-03-06T01:00:53.222Z,10.90
2024-03-06T01:03:21.223Z,12.13
2024-03-06T01:05:49.433Z,11.30
2024-03-06T01:08:19.455Z,11.43
2024-03-06T01:10:47.593Z,11.20
2024-03-06T01:13:15.608Z,10.55
2024-03-06T01:15:43.480Z,10.35
2024-03-06T01:18:11.680Z,10.32
2024-03-06T01:20:39.619Z,11.45
2024-03-06T01:23:08.057Z,10.55
2024-03-06T01:25:37.083Z,10.25
2024-03-06T01:28:05.479Z,11.02
2024-03-06T01:30:33.819Z,10.90
2024-03-06T01:33:01.997Z,10.80
2024-03-06T01:35:29.933Z,9.90
2024-03-06T01:37:58.128Z,9.93
2024-03-06T01:40:25.802Z,10.00
2024-03-06T01:42:53.902Z,10.80
2024-03-06T01:45:25.610Z,9.73
2024-03-06T01:47:53.778Z,10.82
2024-03-06T01:50:21.629Z,10.18
2024-03-06T01:52:53.082Z,9.68
2024-03-06T01:55:21.093Z,8.98
2024-03-06T01:57:51.133Z,9.15
2024-03-06T02:00:19.137Z,8.55
2024-03-06T02:02:47.684Z,8.90
2024-03-06T02:05:16.219Z,9.30
2024-03-06T02:07:46.812Z,10.25
2024-03-06T02:10:15.217Z,10.45
2024-03-06T02:12:44.157Z,10.20
2024-03-06T02:15:14.654Z,9.30
2024-03-06T02:17:43.914Z,8.25
2024-03-06T02:20:14.047Z,9.70
2024-03-06T02:22:42.466Z,9.32
2024-03-06T02:25:10.758Z,8.85
2024-03-06T02:27:39.433Z,9.00
2024-03-06T02:30:07.905Z,10.43
2024-03-06T02:32:36.090Z,11.48
2024-03-06T02:35:10.290Z,10.85
2024-03-06T02:37:40.400Z,9.95
2024-03-06T02:40:11.352Z,10.85
2024-03-06T02:42:43.380Z,9.98
2024-03-06T02:45:11.159Z,10.18
2024-03-06T02:47:39.338Z,10.23
2024-03-06T02:50:09.109Z,10.23
2024-03-06T02:52:37.536Z,10.65
2024-03-06T02:55:06.233Z,9.93
2024-03-06T02:57:34.838Z,10.55
2024-03-06T03:00:02.617Z,14.13
2024-03-06T03:02:32.918Z,14.73
2024-03-06T03:05:02.949Z,14.70
2024-03-06T03:07:31.147Z,15.15
2024-03-06T03:09:59.052Z,15.63
2024-03-06T03:12:30.552Z,14.80
2024-03-06T03:14:58.436Z,13.93
2024-03-06T03:17:26.626Z,11.75
2024-03-06T03:19:54.462Z,11.43
2024-03-06T03:22:23.825Z,11.52
2024-03-06T03:24:51.670Z,12.23
2024-03-06T03:27:19.817Z,12.20
2024-03-06T03:29:49.769Z,13.63
2024-03-06T03:32:18.151Z,13.60
2024-03-06T03:34:46.102Z,12.18
2024-03-06T03:37:14.983Z,11.93
2024-03-06T03:39:45.438Z,12.05
2024-03-06T03:42:13.689Z,10.40
2024-03-06T03:44:41.469Z,10.20
2024-03-06T03:47:09.666Z,9.88
2024-03-06T03:49:37.870Z,9.95
2024-03-06T03:52:06.066Z,9.85
2024-03-06T03:54:34.212Z,9.77
2024-03-06T03:57:03.026Z,9.98
2024-03-06T03:59:30.740Z,9.38
2024-03-06T04:01:58.992Z,9.32
2024-03-06T04:04:26.713Z,9.63
2024-03-06T04:06:55.929Z,9.68
2024-03-06T04:09:23.604Z,10.52
2024-03-06T04:11:51.890Z,11.82
2024-03-06T04:14:20.758Z,11.75
2024-03-06T04:16:49.839Z,12.50
2024-03-06T04:19:20.077Z,13.13
2024-03-06T04:21:48.119Z,14.15
2024-03-06T04:24:16.462Z,14.20
2024-03-06T04:26:44.771Z,14.15
2024-03-06T04:29:12.436Z,16.02
2024-03-06T04:31:41.506Z,16.17
2024-03-06T04:34:09.245Z,19.35
2024-03-06T04:36:37.263Z,14.85
2024-03-06T04:39:09.025Z,14.00
2024-03-06T04:41:39.282Z,13.38
2024-03-06T04:44:07.483Z,13.07
2024-03-06T04:46:35.480Z,13.07
2024-03-06T04:49:03.943Z,13.32
2024-03-06T04:51:32.093Z,13.55
2024-03-06T04:54:00.151Z,12.75
2024-03-06T04:56:28.195Z,12.40
2024-03-06T04:58:56.083Z,13.13
2024-03-06T05:01:24.087Z,12.57
2024-03-06T05:59:54.162Z,21.58
2024-03-06T06:02:24.311Z,16.25
2024-03-06T06:05:03.887Z,16.23
2024-03-06T06:07:41.535Z,16.65
2024-03-06T06:10:11.906Z,16.63
2024-03-06T06:12:40.031Z,20.27
2024-03-06T06:15:09.059Z,17.35
2024-03-06T06:17:39.616Z,20.60
2024-03-06T06:20:11.221Z,27.67
2024-03-06T06:22:39.603Z,22.85
2024-03-06T06:25:08.905Z,17.80
2024-03-06T06:27:39.729Z,17.85
2024-03-06T06:30:14.083Z,16.73
2024-03-06T06:32:44.876Z,16.05
2024-03-06T06:35:15.443Z,17.83
2024-03-06T06:37:43.735Z,20.50
2024-03-06T06:40:13.232Z,20.15
2024-03-06T06:42:52.514Z,17.42
2024-03-06T06:45:21.408Z,18.05
2024-03-06T06:47:50.887Z,16.00
2024-03-06T06:50:20.121Z,17.08
2024-03-06T06:52:53.564Z,18.08
2024-03-06T06:55:26.157Z,17.55
2024-03-06T06:57:54.346Z,17.55
2024-03-06T07:00:24.563Z,16.88
2024-03-06T07:02:52.858Z,17.08
2024-03-06T07:05:25.504Z,16.58
2024-03-06T07:07:58.142Z,16.15
2024-03-06T07:10:25.969Z,17.45
2024-03-06T07:12:56.323Z,15.55
2024-03-06T07:15:24.290Z,14.18
2024-03-06T07:17:52.568Z,15.50
2024-03-06T07:20:20.654Z,14.65
2024-03-06T07:22:48.846Z,14.60
2024-03-06T07:25:16.726Z,18.95
2024-03-06T07:27:44.990Z,15.82
2024-03-06T07:30:14.902Z,13.93
2024-03-06T07:32:43.731Z,13.77
2024-03-06T07:35:34.627Z,15.15
2024-03-06T07:38:17.288Z,15.35
2024-03-06T07:40:45.476Z,16.20
2024-03-06T07:43:13.630Z,14.02
2024-03-06T07:45:42.443Z,13.85
2024-03-06T07:48:11.351Z,12.43
2024-03-06T07:50:40.274Z,12.90
2024-03-06T07:53:08.300Z,12.63
2024-03-06T07:55:37.272Z,12.95
2024-03-06T07:58:06.698Z,14.45
2024-03-06T08:00:34.524Z,13.93
2024-03-06T08:03:03.480Z,15.63
2024-03-06T08:05:35.171Z,16.63
2024-03-06T08:08:04.806Z,23.83
2024-03-06T08:10:32.866Z,25.98
2024-03-06T08:13:00.777Z,35.53
2024-03-06T08:15:28.938Z,17.80
2024-03-06T08:17:56.755Z,19.17
2024-03-06T08:20:29.584Z,17.08
2024-03-06T08:25:49.518Z,14.85
2024-03-06T08:28:17.609Z,13.90
2024-03-06T08:30:51.593Z,14.20
2024-03-06T08:33:23.396Z,18.05
2024-03-06T08:35:51.840Z,15.13
2024-03-06T08:38:20.232Z,15.00
2024-03-06T08:40:50.073Z,13.32
2024-03-06T08:43:18.562Z,13.90
2024-03-06T08:45:46.895Z,13.75
2024-03-06T08:48:15.639Z,14.65
2024-03-06T08:50:43.690Z,14.50
2024-03-06T08:53:11.998Z,19.90
2024-03-06T08:55:41.178Z,13.90
2024-03-06T08:58:10.431Z,14.57
2024-03-06T09:00:39.154Z,14.60
2024-03-06T09:03:12.597Z,15.35
2024-03-06T09:05:40.876Z,30.98
2024-03-06T09:08:10.659Z,14.57
2024-03-06T09:10:38.813Z,13.20
2024-03-06T09:13:06.782Z,12.85
2024-03-06T09:15:35.105Z,14.13
2024-03-06T09:18:04.032Z,12.82
2024-03-06T09:20:33.699Z,13.07
2024-03-06T09:23:03.128Z,13.63
2024-03-06T09:25:31.183Z,13.50
2024-03-06T09:28:01.789Z,13.85
2024-03-06T09:30:30.154Z,13.48
2024-03-06T09:32:59.128Z,14.97
2024-03-06T09:35:27.324Z,13.80
2024-03-06T09:37:55.596Z,13.20
2024-03-06T09:40:25.152Z,12.68
2024-03-06T09:43:05.748Z,12.18
2024-03-06T09:45:35.982Z,13.43
2024-03-06T09:48:04.264Z,12.55
2024-03-06T09:50:37.889Z,12.55
2024-03-06T09:53:08.147Z,13.40
2024-03-06T09:55:37.012Z,13.18
2024-03-06T09:58:06.980Z,13.35
2024-03-06T10:00:37.124Z,12.55
2024-03-06T10:03:10.125Z,12.93
2024-03-06T10:05:38.980Z,13.40
2024-03-06T10:08:07.580Z,15.25
2024-03-06T10:10:35.683Z,13.57
2024-03-06T10:13:04.220Z,12.95
2024-03-06T10:15:32.779Z,12.85
2024-03-06T10:18:18.236Z,14.70
2024-03-06T10:20:46.716Z,14.30
2024-03-06T10:23:16.461Z,14.45
2024-03-06T10:25:46.175Z,13.93
2024-03-06T10:28:14.650Z,15.32
2024-03-06T10:30:44.477Z,15.07
2024-03-06T10:33:14.027Z,15.40
2024-03-06T10:35:44.224Z,15.75
2024-03-06T10:38:15.143Z,13.73
2024-03-06T10:40:44.221Z,15.10
2024-03-06T10:43:13.323Z,14.55
2024-03-06T10:45:59.069Z,14.07
2024-03-06T10:48:30.034Z,14.93
2024-03-06T10:51:01.152Z,14.45
2024-03-06T10:53:33.046Z,13.90
2024-03-06T10:56:02.304Z,13.63
2024-03-06T10:58:43.387Z,14.13
2024-03-06T11:01:18.790Z,12.98
2024-03-06T11:03:51.344Z,15.10
2024-03-06T11:06:22.832Z,14.07
2024-03-06T11:08:53.817Z,14.38
2024-03-06T11:11:27.220Z,15.32
2024-03-06T11:14:02.928Z,14.68
2024-03-06T11:16:35.496Z,14.73
2024-03-06T11:19:10.649Z,13.60
2024-03-06T11:22:03.254Z,14.10
2024-03-06T11:24:35.231Z,12.05
2024-03-06T11:27:07.115Z,12.10
2024-03-06T11:30:16.764Z,12.52
2024-03-06T11:33:05.016Z,10.00
2024-03-06T11:35:33.608Z,10.27
2024-03-06T11:38:02.035Z,11.25
2024-03-06T11:40:31.686Z,10.57
2024-03-06T11:43:29.592Z,12.70
2024-03-06T11:46:13.294Z,12.30
2024-03-06T11:48:43.948Z,12.52
2024-03-06T11:51:12.454Z,12.80
2024-03-06T11:53:45.134Z,10.87
2024-03-06T11:56:16.052Z,10.93
2024-03-06T11:58:45.425Z,8.02
2024-03-06T12:01:15.966Z,8.68
2024-03-06T12:03:45.260Z,8.60
2024-03-06T12:06:13.877Z,8.13
2024-03-06T12:08:42.215Z,9.32
2024-03-06T12:11:11.813Z,9.57
2024-03-06T12:13:47.571Z,6.97
2024-03-06T12:16:25.058Z,8.07
2024-03-06T12:18:59.027Z,8.10
2024-03-06T12:21:32.248Z,8.77
2024-03-06T12:24:10.781Z,8.10
2024-03-06T12:26:39.485Z,7.68
2024-03-06T12:29:11.323Z,8.80
2024-03-06T12:31:43.939Z,10.47
2024-03-06T12:34:18.761Z,8.23
2024-03-06T12:36:48.330Z,9.43
2024-03-06T12:39:19.794Z,9.30
2024-03-06T12:41:50.936Z,8.48
2024-03-06T12:44:21.599Z,7.70
2024-03-06T12:46:51.150Z,8.88
2024-03-06T12:49:20.030Z,9.55
2024-03-06T12:51:49.374Z,9.35
2024-03-06T12:54:17.282Z,8.75
2024-03-06T12:57:14.144Z,9.20
2024-03-06T12:59:43.223Z,9.90
2024-03-06T13:02:37.366Z,8.82
2024-03-06T13:05:06.013Z,9.63
2024-03-06T13:07:39.741Z,7.93
2024-03-06T13:10:12.847Z,8.43
2024-03-06T13:12:41.523Z,8.80
2024-03-06T13:15:10.575Z,24.00
2024-03-06T13:17:38.920Z,21.73
2024-03-06T13:24:09.299Z,11.90
2024-03-06T13:26:39.771Z,11.15
2024-03-06T13:29:08.997Z,9.98
2024-03-06T13:31:37.981Z,9.70
2024-03-06T13:34:06.133Z,10.02
2024-03-06T13:36:34.314Z,9.00
2024-03-06T13:39:02.858Z,10.20
2024-03-06T13:41:31.437Z,12.65
2024-03-06T13:43:59.705Z,10.75
2024-03-06T13:46:29.572Z,11.57
2024-03-06T13:48:57.556Z,10.57
2024-03-06T13:51:28.780Z,8.85
2024-03-06T13:53:57.254Z,11.75
2024-03-06T13:56:27.688Z,9.90
2024-03-06T13:58:55.952Z,10.52
2024-03-06T14:01:24.147Z,16.03
2024-03-06T14:03:52.052Z,10.18
2024-03-06T14:06:20.069Z,12.50
2024-03-06T14:08:49.638Z,11.52
2024-03-06T14:11:17.769Z,13.95
2024-03-06T14:13:45.768Z,13.87
2024-03-06T14:16:15.086Z,11.25
2024-03-06T14:18:43.397Z,11.32
2024-03-06T14:21:11.984Z,11.43
2024-03-06T14:23:40.389Z,11.60
2024-03-06T14:26:34.297Z,15.10
2024-03-06T14:29:04.001Z,11.93
2024-03-06T14:31:36.581Z,12.57
2024-03-06T14:34:13.679Z,20.33
2024-03-06T14:36:47.603Z,12.10
2024-03-06T14:39:27.322Z,13.10
2024-03-06T14:41:55.446Z,11.80
2024-03-06T14:44:24.913Z,12.77
2024-03-06T14:46:52.952Z,13.82
2024-03-06T14:49:20.888Z,13.20
2024-03-06T14:51:53.244Z,16.70
2024-03-06T14:54:32.677Z,32.20
2024-03-06T14:57:01.181Z,27.05
2024-03-06T14:59:34.840Z,23.75
2024-03-06T15:02:31.106Z,36.90
2024-03-06T15:05:01.852Z,22.17
2024-03-06T15:07:35.642Z,20.98
2024-03-06T15:10:09.579Z,30.52
2024-03-06T15:12:39.936Z,26.75
2024-03-06T15:15:08.102Z,28.65
2024-03-06T15:17:40.070Z,24.00
2024-03-06T15:20:10.986Z,24.60
2024-03-06T15:22:43.271Z,27.00
2024-03-06T15:25:13.505Z,25.85
2024-03-06T15:27:44.073Z,28.60
2024-03-06T15:30:21.128Z,24.30
2024-03-06T15:32:49.026Z,22.33
2024-03-06T15:35:18.425Z,21.67
2024-03-06T15:37:46.424Z,17.98
2024-03-06T15:40:15.002Z,19.33
2024-03-06T15:43:10.057Z,18.98
2024-03-06T15:45:38.967Z,18.33
2024-03-06T15:48:36.518Z,21.27
2024-03-06T15:51:04.348Z,22.02
2024-03-06T15:53:33.369Z,37.60
2024-03-06T15:56:01.770Z,30.80
2024-03-06T15:58:29.633Z,20.00
2024-03-06T16:01:03.702Z,17.02
2024-03-06T16:03:45.841Z,16.58
2024-03-06T16:06:23.192Z,17.00
2024-03-06T16:08:57.845Z,16.80
2024-03-06T16:11:30.654Z,15.77
2024-03-06T16:14:01.133Z,15.10
2024-03-06T16:16:29.662Z,14.50
2024-03-06T16:19:00.700Z,10.88
2024-03-06T16:21:32.555Z,11.07
2024-03-06T16:24:01.855Z,11.57
2024-03-06T16:26:30.945Z,12.32
2024-03-06T16:29:00.238Z,15.45
2024-03-06T16:31:29.183Z,15.68
2024-03-06T16:33:58.792Z,14.93
2024-03-06T16:36:26.919Z,13.85
2024-03-06T16:38:55.734Z,23.38
2024-03-06T16:41:29.763Z,22.67
2024-03-06T16:43:58.136Z,15.38
2024-03-06T16:46:29.381Z,18.83
2024-03-06T16:48:57.337Z,22.08
2024-03-06T16:51:28.663Z,16.63
2024-03-06T16:53:59.624Z,17.45
2024-03-06T16:56:33.329Z,25.75
2024-03-06T16:59:04.784Z,38.97
2024-03-06T17:01:33.061Z,43.20
2024-03-06T17:04:04.818Z,14.73
2024-03-06T17:06:37.901Z,14.30
2024-03-06T17:09:06.802Z,8.85
2024-03-06T17:11:35.002Z,11.02
2024-03-06T17:14:03.012Z,11.50
2024-03-06T17:16:34.221Z,12.10
2024-03-06T17:19:04.300Z,10.20
2024-03-06T17:21:38.254Z,8.23
2024-03-06T17:24:06.877Z,7.57
2024-03-06T17:26:39.685Z,8.75
2024-03-06T17:29:09.524Z,7.53
2024-03-06T17:31:38.730Z,11.55
2024-03-06T17:34:07.647Z,9.25
2024-03-06T17:36:37.672Z,10.40
2024-03-06T17:39:33.527Z,13.88
2024-03-06T17:42:03.453Z,22.00
2024-03-06T17:44:33.585Z,50.35
2024-03-06T17:47:04.012Z,29.33
2024-03-06T17:49:32.133Z,22.53
2024-03-06T17:52:00.316Z,13.07
2024-03-06T17:54:29.158Z,23.63
2024-03-06T17:57:00.159Z,31.58
2024-03-06T17:59:28.587Z,10.90
2024-03-06T18:01:56.920Z,6.65
2024-03-06T18:04:25.838Z,6.57
2024-03-06T18:06:53.984Z,7.05
2024-03-06T18:12:08.600Z,6.28
2024-03-06T18:14:39.423Z,8.32
2024-03-06T18:17:07.660Z,7.13
2024-03-06T18:19:37.677Z,11.23
2024-03-06T18:22:06.054Z,10.95
2024-03-06T18:24:33.751Z,9.10
2024-03-06T18:27:01.871Z,9.75
2024-03-06T18:29:31.271Z,11.00
2024-03-06T18:31:59.506Z,10.02
2024-03-06T18:34:27.346Z,11.38
2024-03-06T18:36:55.549Z,9.93
2024-03-06T18:39:26.846Z,21.95
2024-03-06T18:42:15.773Z,26.75
2024-03-06T18:44:50.520Z,19.45
2024-03-06T18:47:18.968Z,17.67
2024-03-06T18:49:46.891Z,13.77
2024-03-06T18:52:15.193Z,8.43
2024-03-06T18:54:43.106Z,9.30
2024-03-06T18:57:11.251Z,9.05
2024-03-06T18:59:42.010Z,9.45
2024-03-06T19:02:10.481Z,13.02
2024-03-06T19:04:38.568Z,13.13
2024-03-06T19:07:07.982Z,13.50
2024-03-06T19:09:36.137Z,14.73
2024-03-06T19:12:05.428Z,16.33
2024-03-06T19:14:35.013Z,15.30
2024-03-06T19:17:03.241Z,14.32
2024-03-06T19:19:32.235Z,15.07
2024-03-06T19:22:01.171Z,15.38
2024-03-06T19:24:31.203Z,14.85
2024-03-06T19:26:59.746Z,34.90
2024-03-06T19:29:28.641Z,45.33
2024-03-06T19:32:02.044Z,30.55
2024-03-06T19:34:36.869Z,28.75
2024-03-06T19:37:13.691Z,30.35
2024-03-06T19:39:41.604Z,28.05
2024-03-06T19:42:12.576Z,23.67
2024-03-06T19:44:40.754Z,24.67
2024-03-06T19:47:14.179Z,27.95
2024-03-06T19:49:46.418Z,25.10
2024-03-06T19:52:14.633Z,23.20
2024-03-06T19:54:46.208Z,17.83
2024-03-06T19:57:14.942Z,17.98
2024-03-06T19:59:42.905Z,14.10
2024-03-06T20:02:13.328Z,13.05
2024-03-06T20:04:41.116Z,13.93
2024-03-06T20:07:09.311Z,11.93
2024-03-06T20:09:38.556Z,9.82
2024-03-06T20:12:07.495Z,10.00
2024-03-06T20:14:38.482Z,9.88
2024-03-06T20:17:08.087Z,8.73
2024-03-06T20:19:35.712Z,11.38
2024-03-06T20:22:04.304Z,10.00
2024-03-06T20:24:32.303Z,8.50
2024-03-06T20:27:05.531Z,7.60
2024-03-06T20:29:49.251Z,7.97
2024-03-06T20:32:25.564Z,8.10
2024-03-06T20:35:00.029Z,8.73
2024-03-06T20:37:28.238Z,8.35
2024-03-06T20:39:56.681Z,9.32
2024-03-06T20:42:26.381Z,10.02
2024-03-06T20:44:54.172Z,10.23
2024-03-06T20:47:22.403Z,11.23
2024-03-06T20:49:51.477Z,12.00
2024-03-06T20:52:19.860Z,12.10
2024-03-06T20:54:47.786Z,11.52
2024-03-06T20:57:17.552Z,12.30
2024-03-06T20:59:47.793Z,12.65
2024-03-06T21:02:16.039Z,11.52
2024-03-06T21:04:43.951Z,11.23
2024-03-06T21:07:13.016Z,10.18
2024-03-06T21:09:40.803Z,11.10
2024-03-06T21:12:11.627Z,8.15
2024-03-06T21:14:40.135Z,8.23
2024-03-06T21:17:08.909Z,7.55
2024-03-06T21:19:37.720Z,7.97
2024-03-06T21:22:07.681Z,7.15
2024-03-06T21:24:38.807Z,6.85
2024-03-06T21:27:07.342Z,6.90
2024-03-06T21:29:35.297Z,7.43
2024-03-06T21:32:06.164Z,6.50
2024-03-06T21:35:02.482Z,6.60
2024-03-06T21:37:33.746Z,6.90
2024-03-06T21:40:25.657Z,7.00
2024-03-06T21:42:54.566Z,6.15
2024-03-06T21:45:22.412Z,5.72
2024-03-06T21:47:51.438Z,6.47
2024-03-06T21:50:19.262Z,6.70
2024-03-06T21:52:47.494Z,5.57
2024-03-06T21:55:15.410Z,5.70
2024-03-06T21:57:43.700Z,6.10
2024-03-06T22:00:16.415Z,5.63
2024-03-06T22:02:44.723Z,5.97
2024-03-06T22:05:12.678Z,5.18
2024-03-06T22:07:40.721Z,5.20
2024-03-06T22:10:09.259Z,5.28
2024-03-06T22:12:37.505Z,4.82
2024-03-06T22:15:06.373Z,4.95
2024-03-06T22:17:34.739Z,4.65
2024-03-06T22:20:03.933Z,4.75
2024-03-06T22:22:32.159Z,4.55
2024-03-06T22:24:59.823Z,5.63
2024-03-06T22:27:28.336Z,4.80
2024-03-06T22:29:57.851Z,4.43
2024-03-06T22:32:26.167Z,4.60
2024-03-06T22:34:53.956Z,4.05
2024-03-06T22:37:22.040Z,4.28
2024-03-06T22:39:49.776Z,4.70
2024-03-06T22:42:18.910Z,4.32
2024-03-06T22:44:47.219Z,4.13
2024-03-06T22:47:15.462Z,4.03
2024-03-06T22:49:43.232Z,5.25
2024-03-06T22:52:11.318Z,4.18
2024-03-06T22:54:39.072Z,4.97
2024-03-06T22:57:10.447Z,4.30
2024-03-06T22:59:45.044Z,4.63
2024-03-06T23:02:13.572Z,4.55
2024-03-06T23:04:41.308Z,5.00
2024-03-06T23:07:09.317Z,4.93
2024-03-06T23:09:37.119Z,4.55
2024-03-06T23:12:06.082Z,4.70
2024-03-06T23:14:34.710Z,4.85
2024-03-06T23:17:02.896Z,4.55
2024-03-06T23:19:30.577Z,4.60
2024-03-06T23:22:01.176Z,4.68
2024-03-06T23:24:29.486Z,5.40
2024-03-06T23:26:57.850Z,4.50
2024-03-06T23:29:26.056Z,5.20
2024-03-06T23:31:54.097Z,4.75
2024-03-06T23:34:22.205Z,6.78
2024-03-06T23:37:15.363Z,4.82
2024-03-06T23:39:43.763Z,5.30
2024-03-06T23:42:11.811Z,6.00
2024-03-06T23:44:39.625Z,6.95
2024-03-06T23:47:07.837Z,6.28
2024-03-06T23:49:35.742Z,5.90
2024-03-06T23:52:03.948Z,6.18
2024-03-06T23:54:31.717Z,8.35
2024-03-06T23:56:59.854Z,6.15
2024-03-06T23:59:29.504Z,5.93
